sensor_id;sensor_type;location;lat;lon;timestamp;temperature;humidity
9772;DHT22;4925;52.588;13.370;2022-08-23T00:01:16;19.00;99.90
9772;DHT22;4925;52.588;13.370;2022-08-23T00:03:42;19.00;99.90
9772;DHT22;4925;52.588;13.370;2022-08-23T00:06:09;19.00;99.90
9772;DHT22;4925;52.588;13.370;2022-08-23T00:08:36;19.00;99.90
9772;DHT22;4925;52.588;13.370;2022-08-23T00:11:02;19.00;99.90
9772;DHT22;4925;52.588;13.370;2022-08-23T00:13:30;19.00;99.90
9772;DHT22;4925;52.588;13.370;2022-08-23T00:15:56;19.00;99.90
9772;DHT22;4925;52.588;13.370;2022-08-23T00:18:23;19.00;99.90
9772;DHT22;4925;52.588;13.370;2022-08-23T00:20:49;19.00;99.90
9772;DHT22;4925;52.588;13.370;2022-08-23T00:23:15;19.00;99.90
9772;DHT22;4925;52.588;13.370;2022-08-23T00:25:41;18.90;99.90
9772;DHT22;4925;52.588;13.370;2022-08-23T00:28:07;18.90;99.90
9772;DHT22;4925;52.588;13.370;2022-08-23T00:30:34;18.90;99.90
9772;DHT22;4925;52.588;13.370;2022-08-23T00:33:00;18.80;99.90
9772;DHT22;4925;52.588;13.370;2022-08-23T00:35:26;18.80;99.90
9772;DHT22;4925;52.588;13.370;2022-08-23T00:37:52;18.90;99.90
9772;DHT22;4925;52.588;13.370;2022-08-23T00:40:18;18.80;99.90
9772;DHT22;4925;52.588;13.370;2022-08-23T00:42:49;18.80;99.90
9772;DHT22;4925;52.588;13.370;2022-08-23T00:48:24;18.80;99.90
9772;DHT22;4925;52.588;13.370;2022-08-23T00:51:04;17.70;99.90
9772;DHT22;4925;52.588;13.370;2022-08-23T00:53:36;18.80;99.90
9772;DHT22;4925;52.588;13.370;2022-08-23T00:56:06;18.80;99.90
9772;DHT22;4925;52.588;13.370;2022-08-23T00:58:33;18.70;99.90
9772;DHT22;4925;52.588;13.370;2022-08-23T01:01:01;18.70;99.90
9772;DHT22;4925;52.588;13.370;2022-08-23T01:03:29;18.70;99.90
9772;DHT22;4925;52.588;13.370;2022-08-23T01:06:06;18.70;99.90
9772;DHT22;4925;52.588;13.370;2022-08-23T01:08:34;18.70;99.90
9772;DHT22;4925;52.588;13.370;2022-08-23T01:11:27;18.70;99.90
9772;DHT22;4925;52.588;13.370;2022-08-23T01:14:09;18.70;99.90
9772;DHT22;4925;52.588;13.370;2022-08-23T01:19:10;18.70;99.90
9772;DHT22;4925;52.588;13.370;2022-08-23T01:21:44;18.70;99.90
9772;DHT22;4925;52.588;13.370;2022-08-23T01:24:11;18.70;99.90
9772;DHT22;4925;52.588;13.370;2022-08-23T01:26:38;18.70;99.90
9772;DHT22;4925;52.588;13.370;2022-08-23T01:29:05;18.70;99.90
9772;DHT22;4925;52.588;13.370;2022-08-23T01:31:31;18.70;99.90
9772;DHT22;4925;52.588;13.370;2022-08-23T01:34:00;18.70;99.90
9772;DHT22;4925;52.588;13.370;2022-08-23T01:36:26;18.70;99.90
9772;DHT22;4925;52.588;13.370;2022-08-23T01:38:53;18.70;99.90
9772;DHT22;4925;52.588;13.370;2022-08-23T01:41:19;18.70;99.90
9772;DHT22;4925;52.588;13.370;2022-08-23T01:43:45;18.60;99.90
9772;DHT22;4925;52.588;13.370;2022-08-23T01:46:15;18.60;99.90
9772;DHT22;4925;52.588;13.370;2022-08-23T01:48:43;18.60;99.90
9772;DHT22;4925;52.588;13.370;2022-08-23T01:51:10;18.60;99.90
9772;DHT22;4925;52.588;13.370;2022-08-23T01:53:36;18.60;99.90
9772;DHT22;4925;52.588;13.370;2022-08-23T01:56:01;18.60;99.90
9772;DHT22;4925;52.588;13.370;2022-08-23T01:58:30;18.60;99.90
9772;DHT22;4925;52.588;13.370;2022-08-23T02:00:57;18.60;99.90
9772;DHT22;4925;52.588;13.370;2022-08-23T02:03:23;18.60;99.90
9772;DHT22;4925;52.588;13.370;2022-08-23T02:05:49;18.60;99.90
9772;DHT22;4925;52.588;13.370;2022-08-23T02:08:15;18.60;99.90
9772;DHT22;4925;52.588;13.370;2022-08-23T02:10:59;18.60;99.90
9772;DHT22;4925;52.588;13.370;2022-08-23T02:13:32;18.60;99.90
9772;DHT22;4925;52.588;13.370;2022-08-23T02:15:57;18.60;99.90
9772;DHT22;4925;52.588;13.370;2022-08-23T02:18:24;18.70;99.90
9772;DHT22;4925;52.588;13.370;2022-08-23T02:20:51;18.70;99.90
9772;DHT22;4925;52.588;13.370;2022-08-23T02:23:17;18.60;99.90
9772;DHT22;4925;52.588;13.370;2022-08-23T02:25:43;18.60;99.90
9772;DHT22;4925;52.588;13.370;2022-08-23T02:28:09;18.60;99.90
9772;DHT22;4925;52.588;13.370;2022-08-23T02:30:34;18.60;99.90
9772;DHT22;4925;52.588;13.370;2022-08-23T02:33:00;18.60;99.90
9772;DHT22;4925;52.588;13.370;2022-08-23T02:35:26;18.60;99.90
9772;DHT22;4925;52.588;13.370;2022-08-23T02:37:52;18.60;99.90
9772;DHT22;4925;52.588;13.370;2022-08-23T02:40:18;18.60;99.90
9772;DHT22;4925;52.588;13.370;2022-08-23T02:42:44;18.50;99.90
9772;DHT22;4925;52.588;13.370;2022-08-23T02:45:10;18.50;99.90
9772;DHT22;4925;52.588;13.370;2022-08-23T02:47:37;18.50;99.90
9772;DHT22;4925;52.588;13.370;2022-08-23T02:50:07;18.40;99.90
9772;DHT22;4925;52.588;13.370;2022-08-23T02:52:34;18.40;99.90
9772;DHT22;4925;52.588;13.370;2022-08-23T02:54:59;18.40;99.90
9772;DHT22;4925;52.588;13.370;2022-08-23T02:57:26;18.40;99.90
9772;DHT22;4925;52.588;13.370;2022-08-23T02:59:52;18.40;99.90
9772;DHT22;4925;52.588;13.370;2022-08-23T03:02:18;18.40;99.90
9772;DHT22;4925;52.588;13.370;2022-08-23T03:04:44;18.40;99.90
9772;DHT22;4925;52.588;13.370;2022-08-23T03:07:10;18.40;99.90
9772;DHT22;4925;52.588;13.370;2022-08-23T03:09:36;18.40;99.90
9772;DHT22;4925;52.588;13.370;2022-08-23T03:12:01;18.40;99.90
9772;DHT22;4925;52.588;13.370;2022-08-23T03:14:27;18.40;99.90
9772;DHT22;4925;52.588;13.370;2022-08-23T03:16:53;18.50;99.90
9772;DHT22;4925;52.588;13.370;2022-08-23T03:19:19;18.50;99.90
9772;DHT22;4925;52.588;13.370;2022-08-23T03:21:46;18.50;99.90
9772;DHT22;4925;52.588;13.370;2022-08-23T03:24:11;18.50;99.90
9772;DHT22;4925;52.588;13.370;2022-08-23T03:26:41;18.50;99.90
9772;DHT22;4925;52.588;13.370;2022-08-23T03:29:08;18.40;99.90
9772;DHT22;4925;52.588;13.370;2022-08-23T03:31:34;18.40;99.90
9772;DHT22;4925;52.588;13.370;2022-08-23T03:34:00;18.40;99.90
9772;DHT22;4925;52.588;13.370;2022-08-23T03:36:26;18.40;99.90
9772;DHT22;4925;52.588;13.370;2022-08-23T03:38:51;18.40;99.90
9772;DHT22;4925;52.588;13.370;2022-08-23T03:41:17;18.40;99.90
9772;DHT22;4925;52.588;13.370;2022-08-23T03:43:44;18.40;99.90
9772;DHT22;4925;52.588;13.370;2022-08-23T03:46:10;18.40;99.90
9772;DHT22;4925;52.588;13.370;2022-08-23T03:48:48;18.40;99.90
9772;DHT22;4925;52.588;13.370;2022-08-23T03:51:15;18.40;99.90
9772;DHT22;4925;52.588;13.370;2022-08-23T03:53:41;18.40;99.90
9772;DHT22;4925;52.588;13.370;2022-08-23T03:56:07;18.50;99.90
9772;DHT22;4925;52.588;13.370;2022-08-23T03:58:32;18.50;99.90
9772;DHT22;4925;52.588;13.370;2022-08-23T04:00:58;18.50;99.90
9772;DHT22;4925;52.588;13.370;2022-08-23T04:03:24;18.50;99.90
9772;DHT22;4925;52.588;13.370;2022-08-23T04:05:50;18.40;99.90
9772;DHT22;4925;52.588;13.370;2022-08-23T04:08:15;18.40;99.90
9772;DHT22;4925;52.588;13.370;2022-08-23T04:10:41;18.40;99.90
9772;DHT22;4925;52.588;13.370;2022-08-23T04:13:07;18.40;99.90
9772;DHT22;4925;52.588;13.370;2022-08-23T04:15:33;18.40;99.90
9772;DHT22;4925;52.588;13.370;2022-08-23T04:17:59;18.40;99.90
9772;DHT22;4925;52.588;13.370;2022-08-23T04:20:26;18.40;99.90
9772;DHT22;4925;52.588;13.370;2022-08-23T04:22:52;18.40;99.90
9772;DHT22;4925;52.588;13.370;2022-08-23T04:25:19;18.40;99.90
9772;DHT22;4925;52.588;13.370;2022-08-23T04:27:44;18.40;99.90
9772;DHT22;4925;52.588;13.370;2022-08-23T04:30:11;18.50;99.90
9772;DHT22;4925;52.588;13.370;2022-08-23T04:32:36;18.50;99.90
9772;DHT22;4925;52.588;13.370;2022-08-23T04:35:02;18.40;99.90
9772;DHT22;4925;52.588;13.370;2022-08-23T04:37:28;18.50;99.90
9772;DHT22;4925;52.588;13.370;2022-08-23T04:39:53;18.70;99.90
9772;DHT22;4925;52.588;13.370;2022-08-23T04:42:37;18.50;99.90
9772;DHT22;4925;52.588;13.370;2022-08-23T04:45:04;18.50;99.90
9772;DHT22;4925;52.588;13.370;2022-08-23T04:47:30;18.50;99.90
9772;DHT22;4925;52.588;13.370;2022-08-23T04:49:55;18.50;99.90
9772;DHT22;4925;52.588;13.370;2022-08-23T04:52:21;18.50;99.90
9772;DHT22;4925;52.588;13.370;2022-08-23T04:54:47;18.50;99.90
9772;DHT22;4925;52.588;13.370;2022-08-23T04:57:13;18.50;99.90
9772;DHT22;4925;52.588;13.370;2022-08-23T04:59:39;18.50;99.90
9772;DHT22;4925;52.588;13.370;2022-08-23T05:02:06;18.50;99.90
9772;DHT22;4925;52.588;13.370;2022-08-23T05:04:31;18.50;99.90
9772;DHT22;4925;52.588;13.370;2022-08-23T05:06:57;18.60;99.90
9772;DHT22;4925;52.588;13.370;2022-08-23T05:09:22;18.50;99.90
9772;DHT22;4925;52.588;13.370;2022-08-23T05:11:49;18.60;99.90
9772;DHT22;4925;52.588;13.370;2022-08-23T05:14:15;18.60;99.90
9772;DHT22;4925;52.588;13.370;2022-08-23T05:16:41;18.60;99.90
9772;DHT22;4925;52.588;13.370;2022-08-23T05:19:06;18.60;99.90
9772;DHT22;4925;52.588;13.370;2022-08-23T05:21:32;18.60;99.90
9772;DHT22;4925;52.588;13.370;2022-08-23T05:23:59;18.60;99.90
9772;DHT22;4925;52.588;13.370;2022-08-23T05:26:25;18.60;99.90
9772;DHT22;4925;52.588;13.370;2022-08-23T05:28:50;18.50;99.90
9772;DHT22;4925;52.588;13.370;2022-08-23T05:31:22;18.60;99.90
9772;DHT22;4925;52.588;13.370;2022-08-23T05:33:48;18.60;99.90
9772;DHT22;4925;52.588;13.370;2022-08-23T05:36:16;18.60;99.90
9772;DHT22;4925;52.588;13.370;2022-08-23T05:38:42;18.70;99.90
9772;DHT22;4925;52.588;13.370;2022-08-23T05:41:08;18.70;99.90
9772;DHT22;4925;52.588;13.370;2022-08-23T05:43:35;18.80;99.90
9772;DHT22;4925;52.588;13.370;2022-08-23T05:46:10;18.80;99.90
9772;DHT22;4925;52.588;13.370;2022-08-23T05:48:37;18.90;99.90
9772;DHT22;4925;52.588;13.370;2022-08-23T05:51:14;18.90;99.90
9772;DHT22;4925;52.588;13.370;2022-08-23T05:53:40;18.90;99.90
9772;DHT22;4925;52.588;13.370;2022-08-23T05:56:22;18.90;99.90
9772;DHT22;4925;52.588;13.370;2022-08-23T05:58:50;18.90;99.90
9772;DHT22;4925;52.588;13.370;2022-08-23T06:01:17;18.90;99.90
9772;DHT22;4925;52.588;13.370;2022-08-23T06:03:43;19.00;99.90
9772;DHT22;4925;52.588;13.370;2022-08-23T06:06:10;18.90;99.90
9772;DHT22;4925;52.588;13.370;2022-08-23T06:08:37;19.00;99.90
9772;DHT22;4925;52.588;13.370;2022-08-23T06:11:16;19.00;99.90
9772;DHT22;4925;52.588;13.370;2022-08-23T06:13:45;19.10;99.90
9772;DHT22;4925;52.588;13.370;2022-08-23T06:16:14;19.10;99.90
9772;DHT22;4925;52.588;13.370;2022-08-23T06:18:41;19.10;99.90
9772;DHT22;4925;52.588;13.370;2022-08-23T06:21:09;19.20;99.90
9772;DHT22;4925;52.588;13.370;2022-08-23T06:23:36;19.30;99.90
9772;DHT22;4925;52.588;13.370;2022-08-23T06:26:10;19.40;99.90
9772;DHT22;4925;52.588;13.370;2022-08-23T06:28:36;19.50;99.90
9772;DHT22;4925;52.588;13.370;2022-08-23T06:31:02;19.60;99.90
9772;DHT22;4925;52.588;13.370;2022-08-23T06:33:28;19.60;99.90
9772;DHT22;4925;52.588;13.370;2022-08-23T06:36:07;19.70;99.90
9772;DHT22;4925;52.588;13.370;2022-08-23T06:38:33;19.70;99.90
9772;DHT22;4925;52.588;13.370;2022-08-23T06:41:02;19.70;99.90
9772;DHT22;4925;52.588;13.370;2022-08-23T06:43:28;19.60;99.90
9772;DHT22;4925;52.588;13.370;2022-08-23T06:45:54;19.60;99.90
9772;DHT22;4925;52.588;13.370;2022-08-23T06:48:20;19.70;99.90
9772;DHT22;4925;52.588;13.370;2022-08-23T06:50:45;19.70;99.90
9772;DHT22;4925;52.588;13.370;2022-08-23T06:53:11;19.70;99.90
9772;DHT22;4925;52.588;13.370;2022-08-23T06:55:37;19.70;99.90
9772;DHT22;4925;52.588;13.370;2022-08-23T06:58:03;19.80;99.90
9772;DHT22;4925;52.588;13.370;2022-08-23T07:00:29;19.90;99.90
9772;DHT22;4925;52.588;13.370;2022-08-23T07:02:54;20.00;99.90
9772;DHT22;4925;52.588;13.370;2022-08-23T07:05:20;20.00;99.90
9772;DHT22;4925;52.588;13.370;2022-08-23T07:07:46;20.10;99.90
9772;DHT22;4925;52.588;13.370;2022-08-23T07:10:12;20.10;99.90
9772;DHT22;4925;52.588;13.370;2022-08-23T07:12:40;20.20;99.90
9772;DHT22;4925;52.588;13.370;2022-08-23T07:15:10;20.30;99.90
9772;DHT22;4925;52.588;13.370;2022-08-23T07:17:36;20.40;99.90
9772;DHT22;4925;52.588;13.370;2022-08-23T07:20:02;20.50;99.90
9772;DHT22;4925;52.588;13.370;2022-08-23T07:22:28;20.60;99.90
9772;DHT22;4925;52.588;13.370;2022-08-23T07:24:54;20.70;99.90
9772;DHT22;4925;52.588;13.370;2022-08-23T07:27:19;20.80;99.90
9772;DHT22;4925;52.588;13.370;2022-08-23T07:29:45;20.90;99.90
9772;DHT22;4925;52.588;13.370;2022-08-23T07:32:11;20.90;99.90
9772;DHT22;4925;52.588;13.370;2022-08-23T07:34:36;20.90;99.90
9772;DHT22;4925;52.588;13.370;2022-08-23T07:37:02;21.00;99.90
9772;DHT22;4925;52.588;13.370;2022-08-23T07:39:28;21.10;99.90
9772;DHT22;4925;52.588;13.370;2022-08-23T07:42:00;21.10;99.90
9772;DHT22;4925;52.588;13.370;2022-08-23T07:44:26;21.20;99.90
9772;DHT22;4925;52.588;13.370;2022-08-23T07:46:52;21.30;99.90
9772;DHT22;4925;52.588;13.370;2022-08-23T07:49:18;21.40;99.90
9772;DHT22;4925;52.588;13.370;2022-08-23T07:51:50;21.40;99.90
9772;DHT22;4925;52.588;13.370;2022-08-23T07:54:17;21.50;99.90
9772;DHT22;4925;52.588;13.370;2022-08-23T07:56:44;21.50;99.90
9772;DHT22;4925;52.588;13.370;2022-08-23T07:59:10;21.70;99.90
9772;DHT22;4925;52.588;13.370;2022-08-23T08:01:36;21.70;99.90
9772;DHT22;4925;52.588;13.370;2022-08-23T08:04:04;21.80;99.90
9772;DHT22;4925;52.588;13.370;2022-08-23T08:06:37;21.90;99.90
9772;DHT22;4925;52.588;13.370;2022-08-23T08:09:03;22.00;99.90
9772;DHT22;4925;52.588;13.370;2022-08-23T08:11:31;21.90;99.90
9772;DHT22;4925;52.588;13.370;2022-08-23T08:13:57;22.00;99.90
9772;DHT22;4925;52.588;13.370;2022-08-23T08:16:35;22.00;99.90
9772;DHT22;4925;52.588;13.370;2022-08-23T08:19:04;22.20;99.90
9772;DHT22;4925;52.588;13.370;2022-08-23T08:21:31;22.10;99.90
9772;DHT22;4925;52.588;13.370;2022-08-23T08:23:57;22.20;99.90
9772;DHT22;4925;52.588;13.370;2022-08-23T08:26:23;22.20;99.90
9772;DHT22;4925;52.588;13.370;2022-08-23T08:28:49;22.30;99.90
9772;DHT22;4925;52.588;13.370;2022-08-23T08:31:16;22.20;99.90
9772;DHT22;4925;52.588;13.370;2022-08-23T08:33:42;22.20;99.90
9772;DHT22;4925;52.588;13.370;2022-08-23T08:36:10;22.30;99.90
9772;DHT22;4925;52.588;13.370;2022-08-23T08:38:51;22.30;99.90
9772;DHT22;4925;52.588;13.370;2022-08-23T08:41:18;22.60;99.90
9772;DHT22;4925;52.588;13.370;2022-08-23T08:46:40;22.70;99.90
9772;DHT22;4925;52.588;13.370;2022-08-23T08:49:12;22.80;99.90
9772;DHT22;4925;52.588;13.370;2022-08-23T08:51:49;22.80;99.90
9772;DHT22;4925;52.588;13.370;2022-08-23T08:54:20;22.90;99.90
9772;DHT22;4925;52.588;13.370;2022-08-23T08:56:55;23.00;99.90
9772;DHT22;4925;52.588;13.370;2022-08-23T08:59:25;23.00;99.90
9772;DHT22;4925;52.588;13.370;2022-08-23T09:01:51;22.90;99.90
9772;DHT22;4925;52.588;13.370;2022-08-23T09:04:17;22.90;99.90
9772;DHT22;4925;52.588;13.370;2022-08-23T09:06:53;23.00;99.90
9772;DHT22;4925;52.588;13.370;2022-08-23T09:09:58;23.10;99.90
9772;DHT22;4925;52.588;13.370;2022-08-23T09:17:32;23.10;99.90
9772;DHT22;4925;52.588;13.370;2022-08-23T09:20:12;23.20;99.90
9772;DHT22;4925;52.588;13.370;2022-08-23T09:22:42;23.20;99.90
9772;DHT22;4925;52.588;13.370;2022-08-23T09:25:09;23.30;99.90
9772;DHT22;4925;52.588;13.370;2022-08-23T09:27:37;23.30;99.90
9772;DHT22;4925;52.588;13.370;2022-08-23T09:30:03;23.40;99.90
9772;DHT22;4925;52.588;13.370;2022-08-23T09:32:37;23.60;99.90
9772;DHT22;4925;52.588;13.370;2022-08-23T09:35:18;23.60;99.90
9772;DHT22;4925;52.588;13.370;2022-08-23T09:38:00;23.60;99.90
9772;DHT22;4925;52.588;13.370;2022-08-23T09:40:34;23.60;99.90
9772;DHT22;4925;52.588;13.370;2022-08-23T09:48:31;23.90;99.90
9772;DHT22;4925;52.588;13.370;2022-08-23T09:51:24;24.00;99.90
9772;DHT22;4925;52.588;13.370;2022-08-23T09:54:06;24.10;99.90
9772;DHT22;4925;52.588;13.370;2022-08-23T09:56:42;24.00;99.90
9772;DHT22;4925;52.588;13.370;2022-08-23T10:01:57;24.00;99.90
9772;DHT22;4925;52.588;13.370;2022-08-23T10:07:23;24.10;99.90
9772;DHT22;4925;52.588;13.370;2022-08-23T10:09:50;24.00;99.90
9772;DHT22;4925;52.588;13.370;2022-08-23T10:12:16;24.10;99.90
9772;DHT22;4925;52.588;13.370;2022-08-23T10:14:42;24.10;99.90
9772;DHT22;4925;52.588;13.370;2022-08-23T10:17:33;24.10;99.90
9772;DHT22;4925;52.588;13.370;2022-08-23T10:23:02;24.20;99.90
9772;DHT22;4925;52.588;13.370;2022-08-23T10:28:17;24.40;99.90
9772;DHT22;4925;52.588;13.370;2022-08-23T10:33:55;24.70;99.90
9772;DHT22;4925;52.588;13.370;2022-08-23T10:36:57;24.80;99.90
9772;DHT22;4925;52.588;13.370;2022-08-23T10:39:24;25.00;99.90
9772;DHT22;4925;52.588;13.370;2022-08-23T10:44:32;24.90;99.90
9772;DHT22;4925;52.588;13.370;2022-08-23T10:49:53;25.00;99.90
9772;DHT22;4925;52.588;13.370;2022-08-23T10:52:52;25.00;99.90
9772;DHT22;4925;52.588;13.370;2022-08-23T10:55:29;25.00;99.90
9772;DHT22;4925;52.588;13.370;2022-08-23T10:58:02;25.10;99.90
9772;DHT22;4925;52.588;13.370;2022-08-23T11:00:31;25.30;99.90
9772;DHT22;4925;52.588;13.370;2022-08-23T11:03:07;25.30;99.90
9772;DHT22;4925;52.588;13.370;2022-08-23T11:05:35;25.40;99.90
9772;DHT22;4925;52.588;13.370;2022-08-23T11:08:12;25.40;99.90
9772;DHT22;4925;52.588;13.370;2022-08-23T11:10:54;25.40;99.90
9772;DHT22;4925;52.588;13.370;2022-08-23T11:13:23;25.50;99.90
9772;DHT22;4925;52.588;13.370;2022-08-23T11:16:13;25.60;99.90
9772;DHT22;4925;52.588;13.370;2022-08-23T11:18:40;25.70;99.90
9772;DHT22;4925;52.588;13.370;2022-08-23T11:21:39;25.90;99.90
9772;DHT22;4925;52.588;13.370;2022-08-23T11:32:12;26.40;99.90
9772;DHT22;4925;52.588;13.370;2022-08-23T11:34:46;26.60;99.90
9772;DHT22;4925;52.588;13.370;2022-08-23T11:44:56;26.90;99.90
9772;DHT22;4925;52.588;13.370;2022-08-23T11:47:36;26.70;99.90
9772;DHT22;4925;52.588;13.370;2022-08-23T11:53:10;26.90;99.90
9772;DHT22;4925;52.588;13.370;2022-08-23T12:01:11;28.00;97.80
9772;DHT22;4925;52.588;13.370;2022-08-23T12:11:17;29.00;94.80
9772;DHT22;4925;52.588;13.370;2022-08-23T12:13:55;29.10;94.50
9772;DHT22;4925;52.588;13.370;2022-08-23T12:24:18;30.80;91.00
9772;DHT22;4925;52.588;13.370;2022-08-23T12:40:01;32.10;84.60
9772;DHT22;4925;52.588;13.370;2022-08-23T12:42:34;31.40;85.50
9772;DHT22;4925;52.588;13.370;2022-08-23T12:45:04;31.30;86.70
9772;DHT22;4925;52.588;13.370;2022-08-23T12:47:31;31.40;86.00
9772;DHT22;4925;52.588;13.370;2022-08-23T12:50:05;31.40;86.70
9772;DHT22;4925;52.588;13.370;2022-08-23T12:52:35;31.60;86.70
9772;DHT22;4925;52.588;13.370;2022-08-23T12:55:11;31.80;87.00
9772;DHT22;4925;52.588;13.370;2022-08-23T12:57:39;31.60;85.80
9772;DHT22;4925;52.588;13.370;2022-08-23T13:00:23;30.50;85.20
9772;DHT22;4925;52.588;13.370;2022-08-23T13:05:46;30.20;87.30
9772;DHT22;4925;52.588;13.370;2022-08-23T13:08:26;29.90;88.10
9772;DHT22;4925;52.588;13.370;2022-08-23T13:10:53;30.20;86.90
9772;DHT22;4925;52.588;13.370;2022-08-23T13:13:24;30.30;87.80
9772;DHT22;4925;52.588;13.370;2022-08-23T13:18:26;30.40;87.40
9772;DHT22;4925;52.588;13.370;2022-08-23T13:23:41;29.80;87.70
9772;DHT22;4925;52.588;13.370;2022-08-23T13:29:12;28.60;90.90
9772;DHT22;4925;52.588;13.370;2022-08-23T13:31:59;28.30;91.50
9772;DHT22;4925;52.588;13.370;2022-08-23T13:37:27;28.60;91.40
9772;DHT22;4925;52.588;13.370;2022-08-23T13:39:56;28.50;90.00
9772;DHT22;4925;52.588;13.370;2022-08-23T13:44:57;28.70;89.00
9772;DHT22;4925;52.588;13.370;2022-08-23T13:47:25;28.80;88.50
9772;DHT22;4925;52.588;13.370;2022-08-23T13:49:53;28.90;88.90
9772;DHT22;4925;52.588;13.370;2022-08-23T13:52:19;29.00;89.80
9772;DHT22;4925;52.588;13.370;2022-08-23T13:54:45;28.90;90.30
9772;DHT22;4925;52.588;13.370;2022-08-23T13:57:14;28.90;90.70
9772;DHT22;4925;52.588;13.370;2022-08-23T13:59:54;28.80;91.10
9772;DHT22;4925;52.588;13.370;2022-08-23T14:02:23;28.90;91.00
9772;DHT22;4925;52.588;13.370;2022-08-23T14:04:49;28.80;91.10
9772;DHT22;4925;52.588;13.370;2022-08-23T14:07:14;28.50;90.70
9772;DHT22;4925;52.588;13.370;2022-08-23T14:09:41;28.30;90.30
9772;DHT22;4925;52.588;13.370;2022-08-23T14:12:16;28.10;90.60
9772;DHT22;4925;52.588;13.370;2022-08-23T14:14:42;27.80;90.80
9772;DHT22;4925;52.588;13.370;2022-08-23T14:17:09;27.60;90.90
9772;DHT22;4925;52.588;13.370;2022-08-23T14:19:35;27.40;91.30
9772;DHT22;4925;52.588;13.370;2022-08-23T14:22:01;27.20;92.10
9772;DHT22;4925;52.588;13.370;2022-08-23T14:24:27;27.10;92.60
9772;DHT22;4925;52.588;13.370;2022-08-23T14:26:54;27.10;93.00
9772;DHT22;4925;52.588;13.370;2022-08-23T14:29:21;27.10;93.30
9772;DHT22;4925;52.588;13.370;2022-08-23T14:31:47;27.00;92.40
9772;DHT22;4925;52.588;13.370;2022-08-23T14:34:12;26.90;92.10
9772;DHT22;4925;52.588;13.370;2022-08-23T14:36:38;26.80;92.20
9772;DHT22;4925;52.588;13.370;2022-08-23T14:39:03;26.80;92.90
9772;DHT22;4925;52.588;13.370;2022-08-23T14:41:29;26.80;93.20
9772;DHT22;4925;52.588;13.370;2022-08-23T14:43:55;26.80;93.50
9772;DHT22;4925;52.588;13.370;2022-08-23T14:46:22;26.70;93.80
9772;DHT22;4925;52.588;13.370;2022-08-23T14:48:48;26.70;94.00
9772;DHT22;4925;52.588;13.370;2022-08-23T14:51:29;26.70;94.20
9772;DHT22;4925;52.588;13.370;2022-08-23T14:53:57;26.50;94.70
9772;DHT22;4925;52.588;13.370;2022-08-23T14:56:23;26.50;95.00
9772;DHT22;4925;52.588;13.370;2022-08-23T14:58:49;26.50;94.60
9772;DHT22;4925;52.588;13.370;2022-08-23T15:01:16;26.30;94.60
9772;DHT22;4925;52.588;13.370;2022-08-23T15:03:43;26.30;95.10
9772;DHT22;4925;52.588;13.370;2022-08-23T15:06:11;26.20;95.40
9772;DHT22;4925;52.588;13.370;2022-08-23T15:08:37;26.30;95.70
9772;DHT22;4925;52.588;13.370;2022-08-23T15:11:04;26.30;95.90
9772;DHT22;4925;52.588;13.370;2022-08-23T15:13:32;26.20;96.20
9772;DHT22;4925;52.588;13.370;2022-08-23T15:15:57;26.20;96.70
9772;DHT22;4925;52.588;13.370;2022-08-23T15:18:23;26.20;97.30
9772;DHT22;4925;52.588;13.370;2022-08-23T15:20:49;26.30;97.20
9772;DHT22;4925;52.588;13.370;2022-08-23T15:23:15;26.40;97.40
9772;DHT22;4925;52.588;13.370;2022-08-23T15:25:42;26.50;97.50
9772;DHT22;4925;52.588;13.370;2022-08-23T15:28:12;26.70;98.00
9772;DHT22;4925;52.588;13.370;2022-08-23T15:30:38;26.80;98.10
9772;DHT22;4925;52.588;13.370;2022-08-23T15:33:04;26.90;98.40
9772;DHT22;4925;52.588;13.370;2022-08-23T15:35:34;27.00;98.10
9772;DHT22;4925;52.588;13.370;2022-08-23T15:38:01;27.10;97.40
9772;DHT22;4925;52.588;13.370;2022-08-23T15:40:26;27.00;96.90
9772;DHT22;4925;52.588;13.370;2022-08-23T15:42:52;26.90;97.10
9772;DHT22;4925;52.588;13.370;2022-08-23T15:45:18;26.60;97.40
9772;DHT22;4925;52.588;13.370;2022-08-23T15:47:51;26.40;98.20
9772;DHT22;4925;52.588;13.370;2022-08-23T15:50:18;26.20;98.90
9772;DHT22;4925;52.588;13.370;2022-08-23T15:52:44;26.00;99.50
9772;DHT22;4925;52.588;13.370;2022-08-23T15:55:10;25.90;99.90
9772;DHT22;4925;52.588;13.370;2022-08-23T15:57:47;25.80;99.90
9772;DHT22;4925;52.588;13.370;2022-08-23T16:00:15;25.70;99.90
9772;DHT22;4925;52.588;13.370;2022-08-23T16:02:42;25.60;99.90
9772;DHT22;4925;52.588;13.370;2022-08-23T16:05:09;25.50;99.90
9772;DHT22;4925;52.588;13.370;2022-08-23T16:07:35;25.50;99.90
9772;DHT22;4925;52.588;13.370;2022-08-23T16:10:02;25.40;99.90
9772;DHT22;4925;52.588;13.370;2022-08-23T16:12:31;25.40;99.90
9772;DHT22;4925;52.588;13.370;2022-08-23T16:14:57;25.30;99.90
9772;DHT22;4925;52.588;13.370;2022-08-23T16:17:22;25.30;99.90
9772;DHT22;4925;52.588;13.370;2022-08-23T16:19:48;25.20;99.90
9772;DHT22;4925;52.588;13.370;2022-08-23T16:22:14;25.20;99.90
9772;DHT22;4925;52.588;13.370;2022-08-23T16:24:40;25.20;99.90
9772;DHT22;4925;52.588;13.370;2022-08-23T16:27:07;25.30;99.90
9772;DHT22;4925;52.588;13.370;2022-08-23T16:29:34;25.40;99.90
9772;DHT22;4925;52.588;13.370;2022-08-23T16:32:04;25.40;99.90
9772;DHT22;4925;52.588;13.370;2022-08-23T16:34:31;25.40;99.90
9772;DHT22;4925;52.588;13.370;2022-08-23T16:36:59;25.40;99.90
9772;DHT22;4925;52.588;13.370;2022-08-23T16:39:27;25.40;99.90
9772;DHT22;4925;52.588;13.370;2022-08-23T16:41:53;25.40;99.90
9772;DHT22;4925;52.588;13.370;2022-08-23T16:44:18;25.40;99.90
9772;DHT22;4925;52.588;13.370;2022-08-23T16:46:44;25.40;99.90
9772;DHT22;4925;52.588;13.370;2022-08-23T16:49:12;25.40;99.90
9772;DHT22;4925;52.588;13.370;2022-08-23T16:51:38;25.40;99.90
9772;DHT22;4925;52.588;13.370;2022-08-23T16:54:04;25.30;99.90
9772;DHT22;4925;52.588;13.370;2022-08-23T16:56:30;25.20;99.90
9772;DHT22;4925;52.588;13.370;2022-08-23T16:58:56;25.10;99.90
9772;DHT22;4925;52.588;13.370;2022-08-23T17:01:22;25.20;99.90
9772;DHT22;4925;52.588;13.370;2022-08-23T17:03:48;25.10;99.90
9772;DHT22;4925;52.588;13.370;2022-08-23T17:06:13;25.10;99.90
9772;DHT22;4925;52.588;13.370;2022-08-23T17:08:39;25.00;99.90
9772;DHT22;4925;52.588;13.370;2022-08-23T17:11:05;25.00;99.90
9772;DHT22;4925;52.588;13.370;2022-08-23T17:13:34;24.90;99.90
9772;DHT22;4925;52.588;13.370;2022-08-23T17:16:00;24.90;99.90
9772;DHT22;4925;52.588;13.370;2022-08-23T17:18:26;24.90;99.90
9772;DHT22;4925;52.588;13.370;2022-08-23T17:20:51;24.80;99.90
9772;DHT22;4925;52.588;13.370;2022-08-23T17:23:17;24.90;99.90
9772;DHT22;4925;52.588;13.370;2022-08-23T17:25:43;24.90;99.90
9772;DHT22;4925;52.588;13.370;2022-08-23T17:28:12;24.90;99.90
9772;DHT22;4925;52.588;13.370;2022-08-23T17:30:38;25.00;99.90
9772;DHT22;4925;52.588;13.370;2022-08-23T17:33:03;25.00;99.90
9772;DHT22;4925;52.588;13.370;2022-08-23T17:35:31;25.00;99.90
9772;DHT22;4925;52.588;13.370;2022-08-23T17:37:57;25.00;99.90
9772;DHT22;4925;52.588;13.370;2022-08-23T17:40:36;25.00;99.90
9772;DHT22;4925;52.588;13.370;2022-08-23T17:43:02;24.90;99.90